Time;durP1;ratioP1;P1;durP2;ratioP2;P2;SDS_P1;SDS_P2;PMS_P1;PMS_P2;Temp;Humidity;BMP_temperature;BMP_pressure;BME280_temperature;BME280_humidity;BME280_pressure;Samples;Min_cycle;Max_cycle;Signal;HPM_P1;HPM_P2
2022/11/09 00:00:19;;;;;;;4.03;1.98;;;14.20;99.90;;;;;;5089920;28;20520;-72
2022/11/09 00:02:45;;;;;;;2.08;1.50;;;14.10;99.90;;;;;;5085431;28;20028;-72
2022/11/09 00:05:11;;;;;;;3.95;1.73;;;14.10;99.90;;;;;;5089744;28;20023;-72
2022/11/09 00:07:36;;;;;;;5.45;1.73;;;14.10;99.90;;;;;;5089500;28;20483;-72
2022/11/09 00:10:02;;;;;;;3.67;1.60;;;14.10;99.90;;;;;;5107521;28;20172;-72
2022/11/09 00:12:28;;;;;;;3.80;1.88;;;14.10;99.90;;;;;;5086176;28;20487;-73
2022/11/09 00:14:54;;;;;;;4.07;1.80;;;14.00;99.90;;;;;;5104276;28;20031;-72
2022/11/09 00:17:19;;;;;;;3.92;2.45;;;14.00;99.90;;;;;;5088183;28;20015;-72
2022/11/09 00:19:45;;;;;;;4.03;1.85;;;14.00;99.90;;;;;;5105035;28;20482;-72
2022/11/09 00:22:11;;;;;;;6.60;2.38;;;14.00;99.90;;;;;;5106998;28;20031;-72
2022/11/09 00:24:36;;;;;;;2.85;1.85;;;14.00;99.90;;;;;;5087684;28;20028;-72
2022/11/09 00:27:02;;;;;;;4.18;1.98;;;14.00;99.90;;;;;;5106152;28;20031;-72
2022/11/09 00:29:28;;;;;;;3.47;1.60;;;14.00;99.90;;;;;;5088062;28;20039;-72
2022/11/09 00:31:53;;;;;;;3.88;1.80;;;14.00;99.90;;;;;;5107273;28;20035;-73
2022/11/09 00:34:19;;;;;;;3.25;1.90;;;14.00;99.90;;;;;;5086408;28;20371;-73
2022/11/09 00:36:45;;;;;;;4.20;1.85;;;14.00;99.90;;;;;;5104880;28;20488;-72
2022/11/09 00:39:10;;;;;;;4.18;1.80;;;14.00;99.90;;;;;;5089811;28;20027;-73
2022/11/09 00:41:36;;;;;;;2.50;1.55;;;13.90;99.90;;;;;;5107861;28;20062;-74
2022/11/09 00:44:02;;;;;;;4.15;1.88;;;13.90;99.90;;;;;;5085460;28;20032;-72
2022/11/09 00:46:28;;;;;;;7.30;1.70;;;13.90;99.90;;;;;;5108442;28;20027;-73
2022/11/09 00:48:54;;;;;;;3.03;2.08;;;13.80;99.90;;;;;;5088697;28;20055;-72
2022/11/09 00:51:20;;;;;;;3.78;2.10;;;13.80;99.90;;;;;;5107518;28;20122;-72
2022/11/09 00:53:47;;;;;;;5.90;1.83;;;13.80;99.90;;;;;;5102386;28;20152;-72
2022/11/09 00:56:13;;;;;;;2.97;1.85;;;13.70;99.90;;;;;;5104910;28;20024;-72
2022/11/09 00:58:39;;;;;;;5.20;2.10;;;13.80;99.90;;;;;;5087557;28;20059;-72
2022/11/09 01:01:14;;;;;;;4.05;1.83;;;13.70;99.90;;;;;;5088743;28;20395;-72
2022/11/09 01:03:40;;;;;;;4.40;2.15;;;13.80;99.90;;;;;;5086145;28;20538;-72
2022/11/09 01:06:06;;;;;;;2.67;1.60;;;13.80;99.90;;;;;;5090133;28;20024;-72
2022/11/09 01:08:35;;;;;;;3.88;1.80;;;13.80;99.90;;;;;;5084984;28;20070;-73
2022/11/09 01:11:06;;;;;;;3.33;1.60;;;13.80;99.90;;;;;;5101146;28;20023;-73
2022/11/09 01:13:31;;;;;;;3.17;1.55;;;13.80;99.90;;;;;;5103206;28;20114;-73
2022/11/09 01:15:57;;;;;;;4.43;1.80;;;13.90;99.90;;;;;;5087338;28;20119;-73
2022/11/09 01:18:23;;;;;;;2.95;1.63;;;13.90;99.90;;;;;;5066240;28;20035;-73
2022/11/09 01:20:49;;;;;;;5.07;1.85;;;13.80;99.90;;;;;;5104470;28;20092;-72
2022/11/09 01:23:17;;;;;;;3.10;1.83;;;13.80;99.90;;;;;;5101392;28;20029;-72
2022/11/09 01:25:43;;;;;;;4.70;2.33;;;13.80;99.90;;;;;;5088358;28;20041;-72
2022/11/09 01:28:10;;;;;;;4.15;1.75;;;13.70;99.90;;;;;;5083088;28;20112;-74
2022/11/09 01:30:39;;;;;;;3.60;1.58;;;13.70;99.90;;;;;;5090255;28;20395;-72
2022/11/09 01:33:10;;;;;;;5.80;2.28;;;13.70;99.90;;;;;;5102402;28;20085;-72
2022/11/09 01:35:37;;;;;;;4.40;1.80;;;13.60;99.90;;;;;;5105363;28;20019;-73
2022/11/09 01:38:04;;;;;;;4.82;2.10;;;13.60;99.90;;;;;;5085965;28;20452;-72
2022/11/09 01:40:32;;;;;;;3.35;1.80;;;13.60;99.90;;;;;;5104892;28;20040;-73
2022/11/09 01:42:58;;;;;;;6.07;2.45;;;13.60;99.90;;;;;;5097607;28;20035;-72
2022/11/09 01:45:29;;;;;;;4.60;2.42;;;13.60;99.90;;;;;;5071493;28;20035;-72
2022/11/09 01:48:01;;;;;;;;;;;13.60;99.90;;;;;;5084001;28;20517;-71
2022/11/09 01:50:33;;;;;;;4.15;2.10;;;13.60;99.90;;;;;;5088345;28;19911;-72
2022/11/09 01:53:01;;;;;;;4.18;1.80;;;13.60;99.90;;;;;;5112345;28;20038;-72
2022/11/09 01:55:27;;;;;;;4.63;1.90;;;13.60;99.90;;;;;;5104707;28;20038;-72
2022/11/09 01:58:00;;;;;;;4.18;1.88;;;13.60;99.90;;;;;;5105304;28;20039;-72
2022/11/09 02:00:27;;;;;;;5.40;2.40;;;13.50;99.90;;;;;;5086440;28;20114;-72
2022/11/09 02:03:08;;;;;;;8.07;1.80;;;13.50;99.90;;;;;;5084854;28;20067;-72
2022/11/09 02:05:36;;;;;;;8.50;2.50;;;13.60;99.90;;;;;;5084506;28;20100;-72
2022/11/09 02:08:04;;;;;;;2.97;1.60;;;13.60;99.90;;;;;;5083783;28;20031;-72
2022/11/09 02:10:41;;;;;;;2.78;1.73;;;13.60;99.90;;;;;;5087542;28;20367;-73
2022/11/09 02:13:08;;;;;;;6.15;1.92;;;13.60;99.90;;;;;;5100367;28;20051;-73
2022/11/09 02:15:35;;;;;;;9.00;2.25;;;13.50;99.90;;;;;;5101975;28;20035;-73
2022/11/09 02:18:02;;;;;;;3.90;1.88;;;13.50;99.90;;;;;;5102365;28;20493;-73
2022/11/09 02:20:28;;;;;;;2.88;1.80;;;13.60;99.90;;;;;;5103302;28;20043;-72
2022/11/09 02:22:54;;;;;;;4.03;2.13;;;13.50;99.90;;;;;;5083446;28;20032;-73
2022/11/09 02:25:20;;;;;;;5.10;1.80;;;13.50;99.90;;;;;;5104527;28;20089;-72
2022/11/09 02:27:47;;;;;;;3.53;2.00;;;13.50;99.90;;;;;;5082517;28;20044;-73
2022/11/09 02:30:13;;;;;;;3.03;1.85;;;13.60;99.90;;;;;;5086297;28;20034;-73
2022/11/09 02:32:39;;;;;;;3.40;2.03;;;13.50;99.90;;;;;;5102652;28;20036;-73
2022/11/09 02:35:05;;;;;;;4.20;1.65;;;13.60;99.90;;;;;;5105414;28;20055;-72
2022/11/09 02:37:48;;;;;;;3.25;1.83;;;13.60;99.90;;;;;;5087568;28;20024;-73
2022/11/09 02:40:24;;;;;;;3.58;2.00;;;13.60;99.90;;;;;;5100763;28;20028;-72
2022/11/09 02:42:50;;;;;;;3.10;1.80;;;13.50;99.90;;;;;;5100793;28;20407;-73
2022/11/09 02:45:15;;;;;;;5.05;2.38;;;13.50;99.90;;;;;;5103524;28;20026;-73
2022/11/09 02:47:41;;;;;;;4.20;2.42;;;13.50;99.90;;;;;;5104311;28;20027;-73
2022/11/09 02:50:07;;;;;;;2.95;1.95;;;13.50;99.90;;;;;;5087903;28;20035;-73
2022/11/09 02:52:33;;;;;;;4.55;1.90;;;13.50;99.90;;;;;;5108922;28;20336;-73
2022/11/09 02:54:58;;;;;;;4.78;2.50;;;13.50;99.90;;;;;;5106346;28;20068;-73
2022/11/09 02:57:24;;;;;;;4.60;1.67;;;13.40;99.90;;;;;;5090608;28;20038;-73
2022/11/09 02:59:50;;;;;;;5.15;2.00;;;13.50;99.90;;;;;;5091491;28;20039;-72
2022/11/09 03:02:15;;;;;;;4.63;1.90;;;13.40;99.90;;;;;;5089390;28;20020;-72
2022/11/09 03:04:41;;;;;;;6.30;2.42;;;13.40;99.90;;;;;;5104727;28;20158;-73
2022/11/09 03:07:07;;;;;;;3.53;1.88;;;13.40;99.90;;;;;;5109222;28;20031;-73
2022/11/09 03:09:33;;;;;;;8.50;2.10;;;13.40;99.90;;;;;;5107363;28;20055;-73
2022/11/09 03:12:27;;;;;;;4.80;2.03;;;13.40;99.90;;;;;;5074374;28;20072;-72
2022/11/09 03:14:44;;;;;;;3.25;1.95;;;13.40;99.90;;;;;;5107748;28;20034;-73
2022/11/09 03:17:09;;;;;;;3.85;1.85;;;13.40;99.90;;;;;;5087455;28;20036;-73
2022/11/09 03:19:35;;;;;;;5.05;1.75;;;13.30;99.90;;;;;;5105964;28;20032;-73
2022/11/09 03:22:01;;;;;;;3.50;1.98;;;13.40;99.90;;;;;;5105760;28;20028;-73
2022/11/09 03:24:26;;;;;;;4.68;2.03;;;13.40;99.90;;;;;;5090024;28;20020;-73
2022/11/09 03:26:52;;;;;;;3.00;2.08;;;13.40;99.90;;;;;;5083471;28;20050;-73
2022/11/09 03:29:17;;;;;;;3.75;2.08;;;13.40;99.90;;;;;;5087655;28;20361;-73
2022/11/09 03:31:43;;;;;;;4.82;1.88;;;13.30;99.90;;;;;;5103090;28;20031;-73
2022/11/09 03:34:09;;;;;;;3.50;2.00;;;13.40;99.90;;;;;;5089037;28;20043;-73
2022/11/09 03:36:34;;;;;;;3.28;1.85;;;13.30;99.90;;;;;;5101231;28;20384;-73
2022/11/09 03:39:00;;;;;;;4.00;2.00;;;13.40;99.90;;;;;;5104293;28;20040;-73
2022/11/09 03:41:26;;;;;;;3.58;2.05;;;13.30;99.90;;;;;;5106738;28;20036;-72
2022/11/09 03:43:51;;;;;;;2.53;1.83;;;13.30;99.90;;;;;;5104842;27;20405;-73
2022/11/09 03:46:17;;;;;;;3.67;1.95;;;13.40;99.90;;;;;;5106719;28;20019;-73
2022/11/09 03:48:42;;;;;;;4.35;2.00;;;13.30;99.90;;;;;;5073122;28;20057;-72
2022/11/09 03:51:08;;;;;;;4.07;2.00;;;13.40;99.90;;;;;;5105056;28;20023;-72
2022/11/09 03:53:34;;;;;;;4.05;1.90;;;13.40;99.90;;;;;;5106689;28;20488;-73
2022/11/09 03:55:59;;;;;;;3.53;1.67;;;13.40;99.90;;;;;;5106072;28;20123;-73
2022/11/09 03:58:25;;;;;;;4.70;1.92;;;13.40;99.90;;;;;;5083358;28;20487;-73
2022/11/09 04:00:51;;;;;;;3.35;1.80;;;13.50;99.90;;;;;;5104063;28;20031;-73
2022/11/09 04:03:16;;;;;;;3.80;1.65;;;13.50;99.90;;;;;;5092084;28;20035;-73
2022/11/09 04:05:42;;;;;;;3.88;2.00;;;13.50;99.90;;;;;;5089646;28;20024;-73
2022/11/09 04:08:07;;;;;;;6.95;1.90;;;13.60;99.90;;;;;;5072008;28;20431;-72
2022/11/09 04:10:33;;;;;;;6.10;1.92;;;13.60;99.90;;;;;;5090369;28;20028;-72
2022/11/09 04:12:59;;;;;;;2.92;1.55;;;13.60;99.90;;;;;;5091686;28;20070;-73
2022/11/09 04:15:25;;;;;;;5.80;1.85;;;13.60;99.90;;;;;;5102014;28;20887;-72
2022/11/09 04:17:55;;;;;;;4.15;1.75;;;13.60;99.90;;;;;;5089630;28;21112;-73
2022/11/09 04:20:21;;;;;;;2.92;1.60;;;13.70;99.90;;;;;;5087231;28;20475;-73
2022/11/09 04:22:53;;;;;;;2.58;1.55;;;13.70;99.90;;;;;;5105952;28;20051;-72
2022/11/09 04:25:19;;;;;;;2.80;1.50;;;13.70;99.90;;;;;;5087012;28;20123;-72
2022/11/09 04:27:44;;;;;;;4.65;1.75;;;13.70;99.90;;;;;;5107681;28;20491;-72
2022/11/09 04:30:10;;;;;;;4.65;2.03;;;13.80;99.90;;;;;;5107408;28;20039;-72
2022/11/09 04:32:36;;;;;;;4.55;1.90;;;13.80;99.90;;;;;;5102137;28;20016;-72
2022/11/09 04:35:02;;;;;;;3.20;1.52;;;13.80;99.90;;;;;;5100137;28;20045;-72
2022/11/09 04:37:28;;;;;;;3.30;1.70;;;13.80;99.90;;;;;;5106656;28;20434;-71
2022/11/09 04:39:53;;;;;;;3.97;1.70;;;13.80;99.90;;;;;;5098746;28;20032;-72
2022/11/09 04:42:19;;;;;;;2.42;1.33;;;13.80;99.90;;;;;;5104270;28;20020;-73
2022/11/09 04:44:45;;;;;;;6.05;1.70;;;13.70;99.90;;;;;;5103795;28;20015;-73
2022/11/09 04:47:10;;;;;;;4.13;1.70;;;13.70;99.90;;;;;;5073370;28;20020;-73
2022/11/09 04:49:36;;;;;;;5.60;2.00;;;13.80;99.90;;;;;;5080473;28;20406;-70
2022/11/09 04:52:01;;;;;;;3.00;1.80;;;13.70;99.90;;;;;;5086712;28;20479;-73
2022/11/09 04:54:27;;;;;;;6.30;2.10;;;13.70;99.90;;;;;;5088568;28;20059;-73
2022/11/09 04:56:54;;;;;;;3.42;1.50;;;13.80;99.90;;;;;;5087769;28;20031;-71
2022/11/09 04:59:19;;;;;;;4.78;1.83;;;13.70;99.90;;;;;;5086251;28;20622;-72
2022/11/09 05:01:45;;;;;;;3.08;1.30;;;13.70;99.90;;;;;;5104700;28;20103;-73
2022/11/09 05:04:11;;;;;;;6.28;1.58;;;13.70;99.90;;;;;;5084874;28;20034;-72
2022/11/09 05:06:36;;;;;;;4.13;1.60;;;13.80;99.90;;;;;;5104848;28;20049;-72
2022/11/09 05:09:06;;;;;;;5.10;1.50;;;13.80;99.90;;;;;;5103627;28;20106;-72
2022/11/09 05:11:33;;;;;;;4.15;1.67;;;13.80;99.90;;;;;;5104405;28;20122;-72
2022/11/09 05:14:00;;;;;;;4.15;1.65;;;13.80;99.90;;;;;;5088324;28;20035;-72
2022/11/09 05:16:27;;;;;;;3.45;1.77;;;13.80;99.90;;;;;;5104552;28;20102;-72
2022/11/09 05:18:53;;;;;;;3.35;1.75;;;13.80;99.90;;;;;;5102368;28;20036;-72
2022/11/09 05:21:20;;;;;;;7.97;2.10;;;13.80;99.90;;;;;;5104272;27;20136;-72
2022/11/09 05:23:58;;;;;;;3.53;1.95;;;13.90;99.90;;;;;;5087711;28;20121;-73
2022/11/09 05:26:35;;;;;;;6.00;1.83;;;13.90;99.90;;;;;;5107473;28;20391;-72
2022/11/09 05:29:03;;;;;;;6.15;2.63;;;14.00;99.90;;;;;;5087992;28;20294;-72
2022/11/09 05:31:29;;;;;;;2.80;1.65;;;14.00;99.90;;;;;;5086716;28;20143;-72
2022/11/09 05:33:56;;;;;;;5.13;1.92;;;14.00;99.90;;;;;;5103804;28;20036;-72
2022/11/09 05:36:22;;;;;;;4.40;1.70;;;14.10;99.90;;;;;;5086463;28;20458;-73
2022/11/09 05:38:48;;;;;;;5.80;2.00;;;14.00;99.90;;;;;;5103323;28;20046;-73
2022/11/09 05:41:14;;;;;;;4.10;1.48;;;14.00;99.90;;;;;;5082220;28;20039;-72
2022/11/09 05:43:40;;;;;;;5.63;2.10;;;14.00;99.90;;;;;;5105493;28;20138;-72
2022/11/09 05:46:06;;;;;;;7.40;1.85;;;14.10;99.90;;;;;;5086138;28;20131;-72
2022/11/09 05:48:32;;;;;;;4.60;1.60;;;14.10;99.90;;;;;;5102546;28;20110;-72
2022/11/09 05:51:02;;;;;;;5.47;1.70;;;14.00;99.90;;;;;;5104721;28;20145;-72
2022/11/09 05:53:28;;;;;;;6.80;1.90;;;14.00;99.90;;;;;;5105091;28;20028;-72
2022/11/09 05:56:00;;;;;;;4.32;1.85;;;14.00;99.90;;;;;;5081616;28;20027;-72
2022/11/09 05:58:26;;;;;;;4.97;1.70;;;14.00;99.90;;;;;;5103529;28;20039;-73
2022/11/09 06:00:51;;;;;;;5.65;2.08;;;13.90;99.90;;;;;;5099073;28;20427;-73
2022/11/09 06:03:17;;;;;;;4.10;1.80;;;13.90;99.90;;;;;;5085816;28;20475;-73
2022/11/09 06:05:42;;;;;;;3.83;1.35;;;13.90;99.90;;;;;;5106286;28;20038;-72
2022/11/09 06:08:11;;;;;;;3.78;1.50;;;13.90;99.90;;;;;;5108144;28;20116;-72
2022/11/09 06:10:38;;;;;;;5.47;1.58;;;13.90;99.90;;;;;;5101590;28;20036;-73
2022/11/09 06:13:03;;;;;;;6.30;2.42;;;13.90;99.90;;;;;;5104084;28;20035;-72
2022/11/09 06:15:29;;;;;;;4.15;2.22;;;13.80;99.90;;;;;;5101812;28;20034;-72
2022/11/09 06:17:56;;;;;;;5.18;1.90;;;13.80;99.90;;;;;;5103322;28;20038;-72
2022/11/09 06:20:22;;;;;;;5.40;2.17;;;13.80;99.90;;;;;;5107098;28;20664;-71
2022/11/09 06:22:55;;;;;;;6.32;2.33;;;13.80;99.90;;;;;;5105213;28;20114;-71
2022/11/09 06:25:22;;;;;;;7.22;2.15;;;13.80;99.90;;;;;;5086989;28;20031;-73
2022/11/09 06:27:48;;;;;;;6.82;2.10;;;13.80;99.90;;;;;;5088289;28;20028;-73
2022/11/09 06:30:17;;;;;;;5.80;1.70;;;13.80;99.90;;;;;;5109322;28;20050;-73
2022/11/09 06:32:42;;;;;;;4.30;1.60;;;13.90;99.90;;;;;;5093966;28;20031;-74
2022/11/09 06:35:08;;;;;;;3.38;1.85;;;13.90;99.90;;;;;;5093064;28;20028;-72
2022/11/09 06:37:34;;;;;;;2.80;1.50;;;13.80;99.90;;;;;;5102678;28;20024;-72
2022/11/09 06:40:00;;;;;;;3.20;1.48;;;13.80;99.90;;;;;;5091040;28;20028;-72
2022/11/09 06:42:25;;;;;;;3.38;1.20;;;13.80;99.90;;;;;;5103692;28;20031;-73
2022/11/09 06:44:51;;;;;;;5.28;1.98;;;13.80;99.90;;;;;;5098781;28;20084;-72
2022/11/09 06:47:17;;;;;;;8.23;1.85;;;13.90;99.90;;;;;;5090743;28;20041;-72
2022/11/09 06:49:42;;;;;;;4.85;1.85;;;13.90;99.90;;;;;;5106625;28;20038;-71
2022/11/09 06:52:08;;;;;;;5.00;1.88;;;13.90;99.90;;;;;;5106492;28;20083;-71
2022/11/09 06:54:34;;;;;;;3.97;1.48;;;13.90;99.90;;;;;;5109120;28;20032;-72
2022/11/09 06:57:00;;;;;;;4.55;1.48;;;13.90;99.90;;;;;;5092942;28;20039;-73
2022/11/09 06:59:26;;;;;;;7.85;1.50;;;13.80;99.90;;;;;;5110484;28;20110;-72
2022/11/09 07:01:52;;;;;;;4.90;1.80;;;13.80;99.90;;;;;;5089353;28;20133;-72
2022/11/09 07:04:17;;;;;;;5.22;1.73;;;13.80;99.90;;;;;;5091416;28;20066;-71
2022/11/09 07:06:43;;;;;;;5.40;1.88;;;13.80;99.90;;;;;;5090321;28;20391;-72
2022/11/09 07:09:09;;;;;;;4.82;1.50;;;13.80;99.90;;;;;;5092791;28;20487;-71
2022/11/09 07:11:35;;;;;;;3.53;1.40;;;13.80;99.90;;;;;;5101024;27;20027;-71
2022/11/09 07:14:01;;;;;;;6.10;1.40;;;13.80;99.90;;;;;;5101079;28;20038;-72
2022/11/09 07:16:28;;;;;;;5.25;1.52;;;13.80;99.90;;;;;;5105301;28;20080;-72
2022/11/09 07:18:54;;;;;;;2.38;1.45;;;13.80;99.90;;;;;;5090846;28;20032;-71
2022/11/09 07:21:20;;;;;;;4.93;2.05;;;13.80;99.90;;;;;;5091184;28;20020;-71
2022/11/09 07:23:47;;;;;;;8.85;1.80;;;13.80;99.90;;;;;;5106111;28;20032;-72
2022/11/09 07:26:13;;;;;;;4.22;1.75;;;13.70;99.90;;;;;;5102964;28;20027;-72
2022/11/09 07:28:39;;;;;;;4.82;1.80;;;13.70;99.90;;;;;;5092182;28;20495;-72
2022/11/09 07:31:06;;;;;;;3.63;1.60;;;13.80;99.90;;;;;;5110749;28;20027;-72
2022/11/09 07:33:32;;;;;;;3.35;1.60;;;13.80;99.90;;;;;;5091506;28;20501;-71
2022/11/09 07:35:59;;;;;;;4.28;2.05;;;13.80;99.90;;;;;;5083952;28;20039;-72
2022/11/09 07:38:25;;;;;;;6.65;1.92;;;13.80;99.90;;;;;;5093087;28;20035;-72
2022/11/09 07:40:51;;;;;;;5.32;1.88;;;13.80;99.90;;;;;;5088133;28;20027;-72
2022/11/09 07:43:17;;;;;;;3.80;1.60;;;13.80;99.90;;;;;;5097755;28;20051;-71
2022/11/09 07:45:42;;;;;;;5.32;1.92;;;13.80;99.90;;;;;;5099402;28;20138;-72
2022/11/09 07:48:10;;;;;;;4.75;1.98;;;13.90;99.90;;;;;;5100252;28;20396;-72
2022/11/09 07:50:37;;;;;;;7.75;1.70;;;13.90;99.90;;;;;;5069484;28;20112;-71
2022/11/09 07:53:05;;;;;;;4.30;2.22;;;13.90;99.90;;;;;;5106171;28;20095;-71
2022/11/09 07:55:32;;;;;;;5.45;1.80;;;13.90;99.90;;;;;;5089979;28;20046;-71
2022/11/09 07:58:07;;;;;;;6.63;2.15;;;13.90;99.90;;;;;;5090459;28;20032;-73
2022/11/09 08:00:35;;;;;;;6.47;1.77;;;14.00;99.90;;;;;;5107251;27;20019;-71
2022/11/09 08:03:03;;;;;;;4.35;1.52;;;14.00;99.90;;;;;;5107295;28;20399;-72
2022/11/09 08:05:29;;;;;;;5.25;1.73;;;14.00;99.90;;;;;;5105122;28;20092;-72
2022/11/09 08:08:00;;;;;;;10.55;2.40;;;14.00;99.90;;;;;;5093071;28;20031;-72
2022/11/09 08:10:26;;;;;;;;;;;14.00;99.90;;;;;;5101611;28;20027;-72
2022/11/09 08:12:57;;;;;;;6.20;2.00;;;14.00;99.90;;;;;;5084967;28;19911;-72
2022/11/09 08:15:23;;;;;;;4.75;1.80;;;14.00;99.90;;;;;;5109481;28;20024;-72
2022/11/09 08:17:49;;;;;;;5.38;1.98;;;14.00;99.90;;;;;;5099850;27;20024;-72
2022/11/09 08:20:16;;;;;;;5.53;1.63;;;14.00;99.90;;;;;;5101460;28;20115;-71
2022/11/09 08:22:43;;;;;;;7.30;1.75;;;14.00;99.90;;;;;;5104073;28;20117;-72
2022/11/09 08:25:09;;;;;;;5.32;1.70;;;14.00;99.90;;;;;;5103842;28;20156;-71
2022/11/09 08:27:38;;;;;;;7.05;1.80;;;14.00;99.90;;;;;;5073412;28;20399;-71
2022/11/09 08:30:17;;;;;;;7.32;2.05;;;14.10;99.90;;;;;;5089580;28;20391;-72
2022/11/09 08:32:43;;;;;;;10.40;2.22;;;14.10;99.90;;;;;;5103651;28;20061;-72
2022/11/09 08:35:12;;;;;;;6.03;1.80;;;14.20;99.90;;;;;;5068650;28;20048;-72
2022/11/09 08:37:38;;;;;;;4.88;1.42;;;14.10;99.90;;;;;;5088074;28;20039;-72
2022/11/09 08:40:05;;;;;;;5.80;1.55;;;14.10;99.90;;;;;;5104893;28;20043;-72
2022/11/09 08:42:31;;;;;;;6.45;1.83;;;14.10;99.90;;;;;;5106305;27;20019;-72
2022/11/09 08:44:57;;;;;;;5.47;2.00;;;14.10;99.90;;;;;;5105889;28;20402;-72
2022/11/09 08:47:23;;;;;;;5.95;2.03;;;14.00;99.90;;;;;;5108002;28;20035;-72
2022/11/09 08:49:51;;;;;;;4.72;1.63;;;14.00;99.90;;;;;;5105339;28;20032;-72
2022/11/09 08:52:17;;;;;;;9.10;2.00;;;14.10;99.90;;;;;;5101370;28;20318;-72
2022/11/09 08:54:43;;;;;;;10.82;2.10;;;14.00;99.90;;;;;;5079927;28;20538;-72
2022/11/09 08:57:09;;;;;;;5.07;1.75;;;14.00;99.90;;;;;;5101765;28;20424;-72
2022/11/09 08:59:35;;;;;;;6.22;1.52;;;14.00;99.90;;;;;;5076420;28;20085;-72
2022/11/09 09:02:01;;;;;;;5.22;1.75;;;14.10;99.90;;;;;;5084576;28;20491;-73
2022/11/09 09:04:26;;;;;;;6.30;1.52;;;14.10;99.90;;;;;;5069304;28;20131;-72
2022/11/09 09:06:52;;;;;;;7.57;1.67;;;14.10;99.90;;;;;;5083607;28;20023;-72
2022/11/09 09:09:18;;;;;;;12.38;2.25;;;14.10;99.90;;;;;;5088542;28;20050;-72
2022/11/09 09:11:44;;;;;;;9.52;2.42;;;14.20;99.90;;;;;;5070534;28;20059;-73
2022/11/09 09:14:10;;;;;;;10.30;1.88;;;14.20;99.90;;;;;;5087032;28;20483;-72
2022/11/09 09:16:35;;;;;;;5.18;1.60;;;14.20;99.90;;;;;;5086801;28;20471;-72
2022/11/09 09:19:01;;;;;;;5.15;2.03;;;14.30;99.90;;;;;;5105769;28;20036;-72
2022/11/09 09:21:27;;;;;;;8.63;1.63;;;14.30;99.90;;;;;;5102649;28;20020;-73
2022/11/09 09:23:53;;;;;;;8.52;1.60;;;14.30;99.90;;;;;;5092456;28;20810;-72
2022/11/09 09:26:22;;;;;;;9.90;1.85;;;14.40;99.90;;;;;;5089552;28;20032;-72
2022/11/09 09:28:50;;;;;;;8.38;1.88;;;14.40;99.90;;;;;;5088795;27;20032;-73
2022/11/09 09:31:16;;;;;;;9.35;1.77;;;14.50;99.90;;;;;;5094373;28;20109;-73
2022/11/09 09:33:41;;;;;;;4.15;1.40;;;14.60;99.90;;;;;;5097470;28;20461;-71
2022/11/09 09:36:14;;;;;;;10.80;2.08;;;14.70;99.90;;;;;;5082466;28;20558;-73
2022/11/09 09:38:40;;;;;;;15.23;2.42;;;14.80;99.90;;;;;;5090650;28;20165;-73
2022/11/09 09:41:06;;;;;;;5.93;1.77;;;14.90;99.90;;;;;;5077167;28;20054;-73
2022/11/09 09:43:42;;;;;;;8.65;1.83;;;14.90;99.90;;;;;;5072870;28;20064;-73
2022/11/09 09:46:12;;;;;;;8.45;2.03;;;14.90;99.90;;;;;;5075240;28;20048;-72
2022/11/09 09:48:47;;;;;;;6.50;1.70;;;14.90;99.90;;;;;;5092596;28;20049;-72
2022/11/09 09:51:36;;;;;;;8.20;2.35;;;14.90;99.90;;;;;;5080856;28;20273;-72
2022/11/09 09:54:20;;;;;;;7.78;1.95;;;14.80;99.90;;;;;;5091807;28;20079;-72
2022/11/09 09:56:49;;;;;;;7.15;2.50;;;14.80;99.90;;;;;;5094724;28;20106;-72
2022/11/09 09:59:37;;;;;;;8.38;2.33;;;14.90;99.90;;;;;;5097417;28;20084;-72
2022/11/09 10:02:12;;;;;;;6.72;1.85;;;15.00;99.90;;;;;;5101506;28;20038;-73
2022/11/09 10:04:40;;;;;;;9.25;1.92;;;15.10;99.90;;;;;;5099050;28;20064;-72
2022/11/09 10:07:15;;;;;;;6.28;1.80;;;15.00;99.90;;;;;;5079646;28;20026;-72
2022/11/09 10:10:18;;;;;;;9.23;1.70;;;15.00;99.90;;;;;;5085310;28;20567;-72
2022/11/09 10:12:52;;;;;;;8.23;1.95;;;15.00;99.90;;;;;;5099490;28;20063;-72
2022/11/09 10:15:45;;;;;;;11.77;2.05;;;15.00;99.90;;;;;;5082629;28;20036;-73
2022/11/09 10:18:29;;;;;;;10.25;2.13;;;14.90;99.90;;;;;;5087680;28;20036;-73
2022/11/09 10:21:36;;;;;;;6.43;1.92;;;14.90;99.90;;;;;;5086434;28;20111;-72
2022/11/09 10:24:27;;;;;;;6.78;1.80;;;14.90;99.90;;;;;;5013439;28;20091;-73
2022/11/09 10:26:58;;;;;;;7.85;1.85;;;14.80;99.90;;;;;;5010324;28;20059;-72
2022/11/09 10:29:42;;;;;;;5.88;1.63;;;14.80;99.90;;;;;;5014420;28;20041;-73
2022/11/09 10:32:16;;;;;;;9.88;2.47;;;14.90;99.90;;;;;;5002328;28;20030;-73
2022/11/09 10:35:00;;;;;;;6.70;1.60;;;14.80;99.90;;;;;;5014831;28;20143;-73
2022/11/09 10:37:45;;;;;;;6.95;1.85;;;15.30;99.90;;;;;;5014897;28;20043;-73
2022/11/09 10:40:19;;;;;;;6.05;1.95;;;15.50;99.90;;;;;;5014190;28;20042;-71
2022/11/09 10:42:52;;;;;;;7.97;2.15;;;15.30;99.90;;;;;;5003996;28;20379;-71
2022/11/09 10:45:34;;;;;;;9.85;2.58;;;15.20;99.90;;;;;;5005231;28;20482;-72
2022/11/09 10:48:01;;;;;;;10.13;1.85;;;15.10;99.90;;;;;;4999725;28;20124;-73
2022/11/09 10:50:52;;;;;;;8.05;1.85;;;15.20;99.90;;;;;;5016580;28;20363;-73
2022/11/09 10:53:26;;;;;;;8.60;2.00;;;15.30;99.90;;;;;;5011052;28;20103;-73
2022/11/09 10:56:18;;;;;;;8.63;1.45;;;15.30;99.90;;;;;;5083039;28;20564;-71
2022/11/09 10:58:52;;;;;;;8.90;2.13;;;15.40;99.90;;;;;;5099950;28;20027;-72
2022/11/09 11:01:23;;;;;;;11.38;2.00;;;15.30;99.90;;;;;;5099388;28;20030;-72
2022/11/09 11:03:51;;;;;;;6.45;1.73;;;15.30;99.90;;;;;;5088502;28;20027;-72
2022/11/09 11:06:25;;;;;;;7.68;2.00;;;15.30;99.90;;;;;;5084726;28;20027;-72
2022/11/09 11:08:52;;;;;;;8.13;2.42;;;15.30;99.90;;;;;;5094300;28;21461;-73
2022/11/09 11:11:21;;;;;;;10.85;2.28;;;15.30;99.90;;;;;;5106159;27;20027;-72
2022/11/09 11:13:48;;;;;;;7.55;2.03;;;15.40;99.90;;;;;;5101912;28;20032;-72
2022/11/09 11:16:34;;;;;;;6.97;2.03;;;15.40;99.90;;;;;;5102142;28;20019;-72
2022/11/09 11:19:00;;;;;;;7.80;2.35;;;15.60;99.90;;;;;;5093636;28;20035;-72
2022/11/09 11:21:27;;;;;;;6.63;1.95;;;15.60;99.90;;;;;;5101127;28;20818;-72
2022/11/09 11:24:12;;;;;;;9.73;2.55;;;15.70;99.90;;;;;;5106422;27;20027;-72
2022/11/09 11:27:00;;;;;;;8.18;1.63;;;15.80;99.90;;;;;;5089553;28;20115;-72
2022/11/09 11:29:42;;;;;;;9.98;2.60;;;15.70;99.90;;;;;;5107795;28;20023;-72
2022/11/09 11:32:12;;;;;;;5.50;1.65;;;15.60;99.90;;;;;;5104507;28;20118;-72
2022/11/09 11:34:39;;;;;;;11.38;2.40;;;15.40;99.90;;;;;;5072365;28;20031;-72
2022/11/09 11:37:26;;;;;;;5.35;1.48;;;15.40;99.90;;;;;;5086973;28;20035;-73
2022/11/09 11:40:07;;;;;;;10.95;1.98;;;15.30;99.90;;;;;;5106713;28;20047;-71
2022/11/09 11:43:05;;;;;;;6.25;1.65;;;15.30;99.90;;;;;;5107361;28;20387;-73
2022/11/09 11:45:42;;;;;;;6.80;1.80;;;15.20;99.90;;;;;;5026756;28;20031;-73
2022/11/09 11:48:30;;;;;;;9.57;1.90;;;15.20;99.90;;;;;;5102697;28;20483;-73
2022/11/09 11:51:17;;;;;;;7.45;1.80;;;15.20;99.90;;;;;;5105452;27;20356;-73
2022/11/09 11:54:06;;;;;;;6.72;1.60;;;15.20;99.90;;;;;;5073242;28;20023;-74
2022/11/09 11:56:42;;;;;;;7.93;1.95;;;15.20;99.90;;;;;;5095710;28;20036;-71
2022/11/09 11:59:29;;;;;;;6.50;1.42;;;15.30;99.90;;;;;;5102494;28;20023;-71
2022/11/09 12:02:29;;;;;;;7.65;1.75;;;15.30;99.90;;;;;;5086477;28;20494;-72
2022/11/09 12:05:10;;;;;;;4.80;1.40;;;15.30;99.90;;;;;;5089806;28;20162;-72
2022/11/09 12:07:49;;;;;;;7.95;1.50;;;15.40;99.90;;;;;;5103341;28;20024;-71
2022/11/09 12:10:23;;;;;;;9.10;1.58;;;15.40;99.90;;;;;;5089248;28;20304;-72
2022/11/09 12:13:10;;;;;;;6.65;1.60;;;15.40;99.90;;;;;;5088014;28;20031;-72
2022/11/09 12:15:56;;;;;;;7.68;1.70;;;15.40;99.90;;;;;;5100443;28;20093;-72
2022/11/09 12:18:53;;;;;;;7.22;1.52;;;15.40;99.90;;;;;;5105955;28;20112;-72
2022/11/09 12:21:50;;;;;;;10.65;1.98;;;15.40;99.90;;;;;;5105008;28;20024;-72
2022/11/09 12:24:33;;;;;;;12.70;4.05;;;15.40;99.90;;;;;;5071159;28;20036;-72
2022/11/09 12:27:23;;;;;;;8.75;2.08;;;15.40;99.90;;;;;;5103551;28;20395;-72
2022/11/09 12:30:16;;;;;;;11.63;4.25;;;15.40;99.90;;;;;;5090617;28;20023;-73
2022/11/09 12:33:02;;;;;;;6.57;1.95;;;15.50;99.90;;;;;;5099883;28;20024;-72
2022/11/09 12:35:55;;;;;;;414.88;232.20;;;15.50;99.90;;;;;;5089741;28;20114;-72
2022/11/09 12:38:28;;;;;;;463.27;330.70;;;15.40;99.90;;;;;;5102524;28;20136;-72
2022/11/09 12:41:11;;;;;;;41.33;20.85;;;15.40;99.90;;;;;;5104811;28;20103;-74
2022/11/09 12:43:50;;;;;;;200.25;169.52;;;15.40;99.90;;;;;;5114100;28;20031;-72
2022/11/09 12:46:18;;;;;;;17.73;7.47;;;15.40;99.90;;;;;;5105989;27;20502;-71
2022/11/09 12:48:45;;;;;;;11.70;2.13;;;15.40;99.90;;;;;;5101948;28;20377;-73
2022/11/09 12:51:11;;;;;;;8.07;1.88;;;15.40;99.90;;;;;;5103756;28;20095;-73
2022/11/09 12:53:38;;;;;;;8.38;1.50;;;15.40;99.90;;;;;;5106234;28;20121;-73
2022/11/09 12:56:19;;;;;;;8.25;1.55;;;15.50;99.90;;;;;;5102876;28;20027;-72
2022/11/09 12:58:45;;;;;;;9.70;1.80;;;15.50;99.90;;;;;;5104992;28;20031;-72